createdAt,value
2022-12-18T00:01:23.928Z,1.6
2022-12-18T00:03:49.014Z,1.9
2022-12-18T00:06:15.216Z,1
2022-12-18T00:08:41.227Z,1.8
2022-12-18T00:13:33.422Z,1.2
2022-12-18T00:15:59.525Z,0.8
2022-12-18T00:18:24.637Z,1.9
2022-12-18T00:20:49.766Z,2.1
2022-12-18T00:23:15.855Z,2.9
2022-12-18T00:25:41.962Z,1.4
2022-12-18T00:28:08.058Z,1.7
2022-12-18T00:30:34.167Z,1.3
2022-12-18T00:33:00.249Z,1.6
2022-12-18T00:35:26.363Z,1.9
2022-12-18T00:40:18.555Z,2.3
2022-12-18T00:42:44.674Z,2.2
2022-12-18T00:45:10.773Z,2.4
2022-12-18T00:47:36.858Z,2.7
2022-12-18T00:50:02.951Z,2
2022-12-18T00:52:28.064Z,2.4
2022-12-18T00:54:54.171Z,2.2
2022-12-18T00:57:20.268Z,2.1
2022-12-18T00:59:46.387Z,2.5
2022-12-18T01:02:12.474Z,2.2
2022-12-18T01:04:38.570Z,2.1
2022-12-18T01:07:04.652Z,2.1
2022-12-18T01:09:30.772Z,1.2
2022-12-18T01:11:55.892Z,1.4
2022-12-18T01:14:20.994Z,1.4
2022-12-18T01:16:46.129Z,1.1
2022-12-18T01:19:11.239Z,1.7
2022-12-18T01:21:36.378Z,1.3
2022-12-18T01:24:01.492Z,1.4
2022-12-18T01:26:27.588Z,1.8
2022-12-18T01:28:53.685Z,1.5
2022-12-18T01:31:19.791Z,2.7
2022-12-18T01:33:45.877Z,1.9
2022-12-18T01:36:11.974Z,1.7
2022-12-18T01:38:38.075Z,2.2
2022-12-18T01:41:04.182Z,2.4
2022-12-18T01:43:30.363Z,2.4
2022-12-18T01:45:56.383Z,2.1
2022-12-18T01:48:22.492Z,2.5
2022-12-18T01:50:48.581Z,2.5
2022-12-18T01:53:14.674Z,0.5
2022-12-18T01:55:39.793Z,2.6
2022-12-18T01:58:05.893Z,1.6
2022-12-18T02:00:31.981Z,2.1
2022-12-18T02:02:58.091Z,1.7
2022-12-18T02:05:24.193Z,1.8
2022-12-18T02:07:50.304Z,1.6
2022-12-18T02:10:16.388Z,1.2
2022-12-18T02:12:41.518Z,1.4
2022-12-18T02:15:06.617Z,1.5
2022-12-18T02:17:31.765Z,1.4
2022-12-18T02:19:56.872Z,1.5
2022-12-18T02:22:22.971Z,1.1
2022-12-18T02:24:49.065Z,0.8
2022-12-18T02:27:15.166Z,1.6
2022-12-18T02:29:41.267Z,1.2
2022-12-18T02:32:07.369Z,1.9
2022-12-18T02:34:33.464Z,2.1
2022-12-18T02:36:59.602Z,1.7
2022-12-18T02:39:25.667Z,1.8
2022-12-18T02:41:51.758Z,2.4
2022-12-18T02:44:17.870Z,1.5
2022-12-18T02:46:43.962Z,2
2022-12-18T02:49:10.082Z,2.3
2022-12-18T02:51:35.176Z,1.2
2022-12-18T02:54:01.281Z,1.6
2022-12-18T02:56:27.383Z,2
2022-12-18T02:58:53.474Z,1.9
2022-12-18T03:01:19.567Z,1.5
2022-12-18T03:03:45.672Z,1.3
2022-12-18T03:06:11.786Z,1.7
2022-12-18T03:08:36.958Z,1
2022-12-18T03:11:02.008Z,1.5
2022-12-18T03:13:28.137Z,1.8
2022-12-18T03:15:54.218Z,0.7
2022-12-18T03:18:20.318Z,1.3
2022-12-18T03:20:46.409Z,0.9
2022-12-18T03:23:12.517Z,0.9
2022-12-18T03:25:38.610Z,0.9
2022-12-18T03:28:04.716Z,1
2022-12-18T03:30:30.809Z,0.9
2022-12-18T03:32:56.909Z,1.1
2022-12-18T03:35:23.042Z,1.4
2022-12-18T03:37:49.138Z,1.7
2022-12-18T03:40:15.207Z,2.2
2022-12-18T03:42:40.324Z,1.7
2022-12-18T03:45:06.430Z,1.5
2022-12-18T03:47:32.528Z,0.9
2022-12-18T03:49:58.635Z,1.7
2022-12-18T03:52:24.708Z,1.2
2022-12-18T03:54:50.814Z,1.4
2022-12-18T03:57:16.926Z,1.1
2022-12-18T03:59:42.059Z,1.4
2022-12-18T04:02:07.172Z,1.6
2022-12-18T04:04:32.296Z,1.2
2022-12-18T04:06:57.413Z,1
2022-12-18T04:09:23.559Z,1.2
2022-12-18T04:11:49.615Z,1.6
2022-12-18T04:14:15.710Z,0.8
2022-12-18T04:16:41.806Z,1
2022-12-18T04:19:07.912Z,1
2022-12-18T04:21:34.000Z,1.7
2022-12-18T04:24:00.105Z,0.7
2022-12-18T04:26:26.202Z,1.6
2022-12-18T04:28:52.302Z,1.2
2022-12-18T04:31:18.406Z,0.7
2022-12-18T04:33:44.497Z,0.7
2022-12-18T04:36:10.595Z,1.2
2022-12-18T04:38:35.735Z,0.6
2022-12-18T04:41:01.810Z,0.6
2022-12-18T04:43:27.925Z,2.7
2022-12-18T04:45:54.052Z,0.9
2022-12-18T04:48:20.106Z,0.7
2022-12-18T04:50:46.216Z,0.6
2022-12-18T04:53:12.347Z,0.9
2022-12-18T04:55:37.427Z,1.6
2022-12-18T04:58:02.564Z,1.6
2022-12-18T05:00:28.654Z,1
2022-12-18T05:02:54.762Z,1.7
2022-12-18T05:05:20.852Z,1.5
2022-12-18T05:07:46.966Z,1.5
2022-12-18T05:10:13.034Z,1.2
2022-12-18T05:12:39.138Z,4.2
2022-12-18T05:15:05.245Z,3.3
2022-12-18T05:17:31.339Z,3.5
2022-12-18T05:19:57.454Z,3.8
2022-12-18T05:22:23.592Z,3
2022-12-18T05:24:49.641Z,3.7
2022-12-18T05:27:15.750Z,1.7
2022-12-18T05:29:40.858Z,0.8
2022-12-18T05:32:06.956Z,1.4
2022-12-18T05:34:33.078Z,1.5
2022-12-18T05:36:59.152Z,1
2022-12-18T05:39:25.249Z,0.8
2022-12-18T05:41:51.354Z,0.5
2022-12-18T05:44:17.460Z,1.5
2022-12-18T05:46:43.582Z,0.7
2022-12-18T05:49:09.652Z,0.9
2022-12-18T05:51:35.785Z,0.9
2022-12-18T05:54:01.852Z,0.8
2022-12-18T05:56:27.955Z,1.1
2022-12-18T05:58:54.071Z,1.3
2022-12-18T06:01:19.152Z,2.1
2022-12-18T06:03:45.268Z,0.9
2022-12-18T06:06:11.374Z,0.9
2022-12-18T06:08:37.470Z,1.3
2022-12-18T06:11:03.701Z,1.5
2022-12-18T06:13:29.655Z,1.7
2022-12-18T06:15:55.755Z,0.6
2022-12-18T06:18:21.868Z,0.8
2022-12-18T06:20:47.957Z,1.5
2022-12-18T06:23:14.075Z,2.1
2022-12-18T06:25:40.171Z,1.1
2022-12-18T06:28:06.267Z,1.2
2022-12-18T06:30:32.361Z,1.4
2022-12-18T06:32:57.497Z,1.2
2022-12-18T06:35:23.575Z,2.5
2022-12-18T06:37:49.739Z,2.4
2022-12-18T06:40:15.781Z,1.3
2022-12-18T06:42:41.887Z,1.1
2022-12-18T06:45:07.981Z,0.9
2022-12-18T06:47:34.082Z,1
2022-12-18T06:50:00.186Z,1.3
2022-12-18T06:52:26.303Z,1.8
2022-12-18T06:54:52.369Z,1.3
2022-12-18T06:57:18.475Z,1.6
2022-12-18T06:59:44.573Z,1.9
2022-12-18T07:02:10.665Z,1.3
2022-12-18T07:04:35.783Z,0.9
2022-12-18T07:07:01.910Z,0.4
2022-12-18T07:09:28.367Z,1
2022-12-18T07:11:54.098Z,1.7
2022-12-18T07:14:20.187Z,0.7
2022-12-18T07:16:46.292Z,1.1
2022-12-18T07:19:12.375Z,1.1
2022-12-18T07:21:38.528Z,0.4
2022-12-18T07:24:04.584Z,1
2022-12-18T07:26:30.685Z,1.5
2022-12-18T07:28:56.782Z,1.2
2022-12-18T07:31:22.938Z,2.3
2022-12-18T07:33:48.967Z,1.6
2022-12-18T07:36:14.105Z,1.2
2022-12-18T07:38:40.193Z,1.1
2022-12-18T07:41:05.314Z,0.4
2022-12-18T07:43:31.437Z,0.8
2022-12-18T07:45:57.523Z,0.5
2022-12-18T07:48:23.597Z,1.4
2022-12-18T07:50:49.699Z,0.5
2022-12-18T07:53:15.870Z,1.8
2022-12-18T08:03:00.254Z,1.4
2022-12-18T08:05:25.322Z,1.6
2022-12-18T08:07:50.433Z,1.1
2022-12-18T08:10:15.568Z,0.1
2022-12-18T08:12:40.692Z,0.8
2022-12-18T08:15:05.821Z,2.1
2022-12-18T08:19:57.032Z,0.8
2022-12-18T08:22:23.218Z,1
2022-12-18T08:24:48.255Z,0.7
2022-12-18T08:27:13.361Z,1.3
2022-12-18T08:29:39.474Z,0.4
2022-12-18T08:32:05.561Z,0.7
2022-12-18T08:34:31.707Z,0.4
2022-12-18T08:36:57.765Z,0.9
2022-12-18T08:39:23.876Z,1.1
2022-12-18T08:41:49.955Z,0.5
2022-12-18T08:44:16.055Z,1.3
2022-12-18T08:46:42.574Z,2.2
2022-12-18T08:49:08.284Z,0.7
2022-12-18T08:51:33.398Z,0.5
2022-12-18T08:53:58.506Z,1
2022-12-18T08:56:23.620Z,0.4
2022-12-18T08:58:48.725Z,0.7
2022-12-18T09:01:14.854Z,0.7
2022-12-18T09:03:40.946Z,1.1
2022-12-18T09:06:07.103Z,1
2022-12-18T09:08:33.221Z,1
2022-12-18T09:10:59.235Z,1
2022-12-18T09:13:25.319Z,0.6
2022-12-18T09:15:51.538Z,0.4
2022-12-18T09:18:17.593Z,0.3
2022-12-18T09:20:43.722Z,0.3
2022-12-18T09:23:09.771Z,1.4
2022-12-18T09:25:35.844Z,0.9
2022-12-18T09:28:01.957Z,0.7
2022-12-18T09:30:27.115Z,1.9
2022-12-18T09:37:45.322Z,0.2
2022-12-18T09:40:10.454Z,0.6
2022-12-18T09:42:35.568Z,0.1
2022-12-18T09:45:01.732Z,0.2
2022-12-18T09:47:27.946Z,1.4
2022-12-18T09:49:54.069Z,0.3
2022-12-18T09:52:20.053Z,0.3
2022-12-18T09:54:46.105Z,0.1
2022-12-18T09:57:12.170Z,0.3
2022-12-18T09:59:38.299Z,0.1
2022-12-18T10:02:04.361Z,0.8
2022-12-18T10:04:30.466Z,0.5
2022-12-18T10:06:55.595Z,1
2022-12-18T10:09:20.689Z,1
2022-12-18T10:11:46.812Z,0.1
2022-12-18T10:14:12.944Z,0.3
2022-12-18T10:16:38.994Z,1.7
2022-12-18T10:19:05.100Z,1.5
2022-12-18T10:21:31.227Z,0.5
2022-12-18T10:23:57.282Z,0.4
2022-12-18T10:26:23.452Z,0.1
2022-12-18T10:28:49.535Z,0.4
2022-12-18T10:31:15.642Z,0.1
2022-12-18T10:33:41.722Z,0.5
2022-12-18T10:36:07.762Z,1.3
2022-12-18T10:38:33.908Z,0.2
2022-12-18T10:40:58.996Z,0.1
2022-12-18T10:43:25.124Z,0.8
2022-12-18T10:45:51.220Z,0.2
2022-12-18T10:48:17.282Z,0.2
2022-12-18T10:50:43.389Z,0.9
2022-12-18T10:53:09.714Z,1.1
2022-12-18T10:55:35.595Z,0.7
2022-12-18T10:58:01.709Z,0.7
2022-12-18T11:00:27.913Z,0.2
2022-12-18T11:02:53.999Z,0.2
2022-12-18T11:05:19.992Z,0.1
2022-12-18T11:07:46.066Z,0.3
2022-12-18T11:10:12.186Z,0.3
2022-12-18T11:12:37.385Z,1.2
2022-12-18T11:15:03.390Z,1.2
2022-12-18T11:17:29.481Z,0.4
2022-12-18T11:19:55.613Z,0.5
2022-12-18T11:22:21.685Z,0.9
2022-12-18T11:24:47.807Z,0.3
2022-12-18T11:27:13.972Z,0.9
2022-12-18T11:29:39.997Z,0.4
2022-12-18T11:32:06.114Z,1.1
2022-12-18T11:34:32.272Z,0.2
2022-12-18T11:36:58.293Z,0.9
2022-12-18T11:39:24.369Z,1.5
2022-12-18T11:41:50.486Z,0.7
2022-12-18T11:44:16.584Z,1.1
2022-12-18T11:46:42.669Z,0.9
2022-12-18T11:49:08.778Z,0.5
2022-12-18T11:51:34.945Z,1
2022-12-18T11:54:00.960Z,0.3
2022-12-18T11:56:27.074Z,0.4
2022-12-18T11:58:53.189Z,0.5
2022-12-18T12:01:19.250Z,0.5
2022-12-18T12:03:45.338Z,0.8
2022-12-18T12:06:11.599Z,0.5
2022-12-18T12:08:37.548Z,0.3
2022-12-18T12:11:03.662Z,0.2
2022-12-18T12:13:29.831Z,0
2022-12-18T12:15:55.978Z,0.3
2022-12-18T12:18:22.133Z,0.6
2022-12-18T12:20:48.284Z,0.2
2022-12-18T12:23:14.532Z,0.8
2022-12-18T12:25:39.666Z,0.2
2022-12-18T12:28:05.731Z,0
2022-12-18T12:30:30.806Z,1
2022-12-18T12:32:56.915Z,0.2
2022-12-18T12:35:23.407Z,0.9
2022-12-18T12:37:49.093Z,1
2022-12-18T12:40:15.199Z,0.9
2022-12-18T12:42:41.299Z,0.8
2022-12-18T12:45:07.568Z,1.7
2022-12-18T12:47:33.513Z,0.3
2022-12-18T12:49:59.767Z,0.4
2022-12-18T12:52:25.736Z,0.8
2022-12-18T12:54:51.884Z,1.1
2022-12-18T12:57:18.069Z,1.3
2022-12-18T12:59:44.039Z,0.8
2022-12-18T13:02:09.252Z,1.4
2022-12-18T13:04:35.211Z,0.3
2022-12-18T13:07:01.324Z,0.3
2022-12-18T13:09:27.374Z,0.4
2022-12-18T13:11:53.490Z,0.6
2022-12-18T13:14:19.673Z,0.8
2022-12-18T13:16:45.043Z,0.3
2022-12-18T13:19:10.882Z,1.1
2022-12-18T13:21:36.900Z,1.2
2022-12-18T13:24:03.212Z,2
2022-12-18T13:26:29.148Z,0.3
2022-12-18T13:28:54.360Z,1.3
2022-12-18T13:31:20.497Z,1
2022-12-18T13:33:46.677Z,1
2022-12-18T13:36:12.725Z,0.7
2022-12-18T13:38:38.800Z,0.4
2022-12-18T13:41:04.895Z,0.2
2022-12-18T13:43:30.928Z,0.9
2022-12-18T13:45:57.040Z,0.2
2022-12-18T13:48:22.970Z,0.8
2022-12-18T13:50:49.107Z,1.2
2022-12-18T13:53:15.222Z,1.3
2022-12-18T13:55:41.325Z,0.4
2022-12-18T13:58:07.485Z,0.8
2022-12-18T14:00:32.550Z,0.3
2022-12-18T14:02:58.769Z,0.9
2022-12-18T14:05:24.803Z,0.7
2022-12-18T14:07:50.872Z,0.9
2022-12-18T14:10:16.878Z,0.6
2022-12-18T14:12:43.046Z,1.4
2022-12-18T14:15:09.145Z,0.8
2022-12-18T14:17:35.176Z,0.9
2022-12-18T14:20:01.269Z,0.9
2022-12-18T14:22:27.380Z,1.3
2022-12-18T14:24:53.496Z,0.5
2022-12-18T14:27:19.602Z,1.2
2022-12-18T14:29:45.670Z,0.9
2022-12-18T14:32:11.774Z,1
2022-12-18T14:34:37.859Z,1
2022-12-18T14:37:03.962Z,1.2
2022-12-18T14:39:30.062Z,1.2
2022-12-18T14:41:56.142Z,0.6
2022-12-18T14:44:22.264Z,1
2022-12-18T14:46:48.378Z,0.8
2022-12-18T14:49:14.439Z,0.5
2022-12-18T14:51:40.791Z,0.7
2022-12-18T14:54:06.645Z,1.2
2022-12-18T14:56:32.755Z,2.4
2022-12-18T14:58:58.835Z,1.2
2022-12-18T15:01:24.929Z,0.3
2022-12-18T15:03:51.017Z,0.2
2022-12-18T15:06:17.124Z,0.6
2022-12-18T15:08:43.213Z,1.2
2022-12-18T15:11:09.467Z,0.7
2022-12-18T15:13:34.562Z,0.5
2022-12-18T15:15:59.691Z,0.6
2022-12-18T15:18:24.826Z,0.3
2022-12-18T15:20:50.909Z,0.5
2022-12-18T15:23:17.017Z,0.8
2022-12-18T15:25:43.112Z,0.6
2022-12-18T15:28:09.214Z,0.3
2022-12-18T15:30:35.308Z,0.4
2022-12-18T15:33:01.390Z,0.5
2022-12-18T15:35:27.509Z,0.2
2022-12-18T15:37:53.601Z,1
2022-12-18T15:40:19.697Z,0.8
2022-12-18T15:42:45.808Z,0.1
2022-12-18T15:45:11.896Z,0.4
2022-12-18T15:47:37.988Z,0.2
2022-12-18T15:50:03.115Z,0.3
2022-12-18T15:52:29.204Z,0
2022-12-18T15:54:55.310Z,0.3
2022-12-18T15:57:21.396Z,0.4
2022-12-18T15:59:47.493Z,0.3
2022-12-18T16:02:13.591Z,0.1
2022-12-18T16:04:39.677Z,0
2022-12-18T16:07:04.803Z,0.8
2022-12-18T16:09:29.919Z,0.3
2022-12-18T16:11:55.039Z,0.7
2022-12-18T16:14:20.174Z,0.1
2022-12-18T16:16:45.283Z,0.7
2022-12-18T16:19:10.405Z,0.3
2022-12-18T16:21:36.503Z,1
2022-12-18T16:24:02.608Z,0.2
2022-12-18T16:26:28.692Z,0.3
2022-12-18T16:28:54.793Z,0
2022-12-18T16:31:20.893Z,0.3
2022-12-18T16:33:47.000Z,1.2
2022-12-18T16:36:13.095Z,0.4
2022-12-18T16:38:39.212Z,0.5
2022-12-18T16:41:05.303Z,0.3
2022-12-18T16:43:31.390Z,0.1
2022-12-18T16:45:57.496Z,0.4
2022-12-18T16:48:23.588Z,0.3
2022-12-18T16:50:48.694Z,0.4
2022-12-18T16:53:14.829Z,0.4
2022-12-18T16:55:40.910Z,0.2
2022-12-18T16:58:06.990Z,0.3
2022-12-18T17:00:33.085Z,0.1
2022-12-18T17:02:59.179Z,0.2
2022-12-18T17:05:25.290Z,0.3
2022-12-18T17:07:50.406Z,0.5
2022-12-18T17:10:15.549Z,1.2
2022-12-18T17:12:41.642Z,0.7
2022-12-18T17:15:07.715Z,0.4
2022-12-18T17:17:33.843Z,0.1
2022-12-18T17:19:59.916Z,0.4
2022-12-18T17:22:26.024Z,0.2
2022-12-18T17:24:52.124Z,0.4
2022-12-18T17:27:18.224Z,0.1
2022-12-18T17:29:44.314Z,0.7
2022-12-18T17:32:10.427Z,0.4
2022-12-18T17:34:36.507Z,0
2022-12-18T17:37:02.622Z,0.1
2022-12-18T17:39:28.717Z,0.3
2022-12-18T17:41:53.824Z,0.1
2022-12-18T17:44:19.920Z,0.1
2022-12-18T17:46:46.037Z,0.2
2022-12-18T17:49:12.135Z,0.2
2022-12-18T17:51:38.216Z,0.3
2022-12-18T17:54:04.311Z,0.3
2022-12-18T17:56:30.411Z,0.3
2022-12-18T17:58:55.540Z,0.4
2022-12-18T18:01:20.669Z,0.2
2022-12-18T18:03:45.840Z,0.5
2022-12-18T18:06:10.888Z,0.2
2022-12-18T18:08:37.026Z,0.4
2022-12-18T18:11:03.090Z,0.5
2022-12-18T18:13:29.186Z,0.5
2022-12-18T18:15:55.293Z,0.5
2022-12-18T18:18:21.393Z,0.1
2022-12-18T18:20:47.493Z,0
2022-12-18T18:23:13.596Z,0.5
2022-12-18T18:25:39.705Z,0.3
2022-12-18T18:28:05.793Z,0
2022-12-18T18:30:31.911Z,0.2
2022-12-18T18:32:58.063Z,0.5
2022-12-18T18:35:24.065Z,0.3
2022-12-18T18:37:49.197Z,0.5
2022-12-18T18:40:15.294Z,0.2
2022-12-18T18:42:41.404Z,0.4
2022-12-18T18:47:33.602Z,0.2
2022-12-18T18:49:59.705Z,0.1
2022-12-18T18:52:25.796Z,0.7
2022-12-18T18:54:51.891Z,0.7
2022-12-18T18:57:17.072Z,0.3
2022-12-18T18:59:42.166Z,0.5
2022-12-18T19:02:07.254Z,0
2022-12-18T19:04:32.365Z,0.1
2022-12-18T19:06:58.458Z,0.2
2022-12-18T19:09:24.560Z,0.8
2022-12-18T19:14:16.762Z,0.5
2022-12-18T19:16:42.853Z,0.2
2022-12-18T19:19:09.024Z,0.5
2022-12-18T19:21:35.054Z,0.2
2022-12-18T19:24:01.146Z,0.3
2022-12-18T19:26:27.248Z,0.1
2022-12-18T19:28:53.348Z,0.8
2022-12-18T19:31:19.441Z,0.1
2022-12-18T19:33:45.539Z,1.1
2022-12-18T19:36:10.665Z,0.1
2022-12-18T19:38:36.830Z,0.9
2022-12-18T19:41:02.856Z,0.2
2022-12-18T19:43:28.950Z,0.4
2022-12-18T19:45:55.057Z,0.6
2022-12-18T19:48:21.136Z,1.3
2022-12-18T19:50:47.238Z,1.1
2022-12-18T19:53:13.340Z,0.4
2022-12-18T19:55:38.463Z,0.1
2022-12-18T19:58:03.573Z,0.2
2022-12-18T20:00:28.715Z,0.1
2022-12-18T20:02:53.821Z,0
2022-12-18T20:05:19.918Z,0
2022-12-18T20:07:46.014Z,0.5
2022-12-18T20:10:12.095Z,0.2
2022-12-18T20:12:38.205Z,0.3
2022-12-18T20:15:03.343Z,0.1
2022-12-18T20:17:28.443Z,0.3
2022-12-18T20:19:53.568Z,0.9
2022-12-18T20:22:18.683Z,0.1
2022-12-18T20:24:44.776Z,0.1
2022-12-18T20:27:10.895Z,0.8
2022-12-18T20:29:36.981Z,0.5
2022-12-18T20:32:03.138Z,0.2
2022-12-18T20:34:29.181Z,0.5
2022-12-18T20:36:55.269Z,0.2
2022-12-18T20:39:21.376Z,0.1
2022-12-18T20:41:47.472Z,0.1
2022-12-18T20:44:13.554Z,0.4
2022-12-18T20:46:39.666Z,0.7
2022-12-18T20:49:06.095Z,0.2
2022-12-18T20:51:31.935Z,0.2
2022-12-18T20:53:56.974Z,0.4
2022-12-18T20:56:23.083Z,0.7
2022-12-18T20:58:49.275Z,0.1
2022-12-18T21:01:15.315Z,0.5
2022-12-18T21:03:41.405Z,0.1
2022-12-18T21:06:07.516Z,0.5
2022-12-18T21:08:33.601Z,0.1
2022-12-18T21:10:58.730Z,1.1
2022-12-18T21:13:23.847Z,1
2022-12-18T21:15:48.948Z,0.6
2022-12-18T21:18:14.092Z,0.2
2022-12-18T21:20:40.152Z,1.6
2022-12-18T21:23:06.248Z,0.1
2022-12-18T21:25:32.366Z,0.5
2022-12-18T21:27:58.431Z,0.4
2022-12-18T21:30:24.533Z,0.1
2022-12-18T21:32:50.622Z,0.1
2022-12-18T21:35:16.738Z,0.1
2022-12-18T21:37:42.810Z,0.1
2022-12-18T21:40:08.930Z,1.2
2022-12-18T21:42:35.025Z,0.6
2022-12-18T21:45:01.152Z,0.3
2022-12-18T21:47:27.195Z,0.1
2022-12-18T21:49:52.308Z,0.3
2022-12-18T21:52:18.458Z,0.4
2022-12-18T21:54:44.502Z,0.3
2022-12-18T21:57:10.639Z,0.8
2022-12-18T21:59:36.702Z,0.3
2022-12-18T22:02:02.877Z,0.7
2022-12-18T22:04:28.943Z,0.1
2022-12-18T22:06:54.024Z,0.2
2022-12-18T22:09:19.134Z,0.1
2022-12-18T22:11:45.242Z,0.4
2022-12-18T22:14:11.343Z,0.1
2022-12-18T22:16:37.423Z,0.2
2022-12-18T22:19:03.528Z,0.5
2022-12-18T22:21:29.652Z,0.2
2022-12-18T22:23:55.754Z,1
2022-12-18T22:26:21.865Z,0.3
2022-12-18T22:28:47.909Z,0.4
2022-12-18T22:31:14.026Z,0.1
2022-12-18T22:33:40.156Z,0.2
2022-12-18T22:36:06.203Z,0.1
2022-12-18T22:38:32.298Z,0.3
2022-12-18T22:40:57.410Z,0.4
2022-12-18T22:43:23.515Z,0.3
2022-12-18T22:45:49.592Z,0.7
2022-12-18T22:48:15.705Z,0.8
2022-12-18T22:50:41.794Z,0.3
2022-12-18T22:53:07.897Z,0.8
2022-12-18T22:55:33.994Z,0.1
2022-12-18T22:57:59.126Z,0
2022-12-18T23:00:24.240Z,0.4
2022-12-18T23:02:50.335Z,0.8
2022-12-18T23:05:16.436Z,0.5
2022-12-18T23:07:42.538Z,0.6
2022-12-18T23:10:08.620Z,0.3
2022-12-18T23:12:34.718Z,0.2
2022-12-18T23:15:00.804Z,0.1
2022-12-18T23:17:26.910Z,0.7
2022-12-18T23:19:53.006Z,0.3
2022-12-18T23:22:19.109Z,0.3
2022-12-18T23:24:45.199Z,0.5
2022-12-18T23:27:11.305Z,1.5
2022-12-18T23:29:37.410Z,0.4
2022-12-18T23:32:02.505Z,0.4
2022-12-18T23:34:28.623Z,0.3
2022-12-18T23:36:54.754Z,0.4
2022-12-18T23:39:20.813Z,0.7
2022-12-18T23:41:46.891Z,0.7
2022-12-18T23:44:12.979Z,0.1
2022-12-18T23:46:39.156Z,1.1
2022-12-18T23:49:04.215Z,0.7
2022-12-18T23:51:29.322Z,0.7
2022-12-18T23:53:55.438Z,0.3
2022-12-18T23:56:21.553Z,0.3
2022-12-18T23:58:46.633Z,0
